createdAt,value
2018-12-05T00:00:01.463Z,6.87
2018-12-05T00:02:30.434Z,6.70
2018-12-05T00:04:58.774Z,7.00
2018-12-05T00:07:27.238Z,7.10
2018-12-05T00:09:55.627Z,8.58
2018-12-05T00:12:23.907Z,9.05
2018-12-05T00:14:52.355Z,12.43
2018-12-05T00:17:20.856Z,16.07
2018-12-05T00:19:49.514Z,17.25
2018-12-05T00:22:17.595Z,7.70
2018-12-05T00:24:46.939Z,8.93
2018-12-05T00:27:15.174Z,8.85
2018-12-05T00:29:43.268Z,8.53
2018-12-05T00:32:11.419Z,7.58
2018-12-05T00:34:39.547Z,7.50
2018-12-05T00:37:08.170Z,7.70
2018-12-05T00:39:36.418Z,7.70
2018-12-05T00:42:04.838Z,8.10
2018-12-05T00:44:33.106Z,7.70
2018-12-05T00:47:01.405Z,7.40
2018-12-05T00:49:29.747Z,9.73
2018-12-05T00:51:57.808Z,10.20
2018-12-05T00:54:26.120Z,10.28
2018-12-05T00:56:54.274Z,10.90
2018-12-05T00:59:22.692Z,10.10
2018-12-05T01:01:50.932Z,9.60
2018-12-05T01:04:19.738Z,10.23
2018-12-05T01:06:47.986Z,9.80
2018-12-05T01:09:16.617Z,9.70
2018-12-05T01:11:44.739Z,17.27
2018-12-05T01:14:13.258Z,17.57
2018-12-05T01:16:41.490Z,13.43
2018-12-05T01:19:09.700Z,9.13
2018-12-05T01:21:37.861Z,8.25
2018-12-05T01:24:06.132Z,8.08
2018-12-05T01:26:34.294Z,8.40
2018-12-05T01:29:02.431Z,8.88
2018-12-05T01:31:30.742Z,10.30
2018-12-05T01:33:59.033Z,8.53
2018-12-05T01:36:27.089Z,7.55
2018-12-05T01:38:55.461Z,7.00
2018-12-05T01:41:23.643Z,7.15
2018-12-05T01:43:52.166Z,9.93
2018-12-05T01:46:20.595Z,9.40
2018-12-05T01:48:49.893Z,11.00
2018-12-05T01:51:18.011Z,10.70
2018-12-05T01:53:47.030Z,9.45
2018-12-05T01:56:15.106Z,8.53
2018-12-05T01:58:44.164Z,12.58
2018-12-05T02:01:12.860Z,12.50
2018-12-05T02:03:40.872Z,8.90
2018-12-05T02:06:09.939Z,7.90
2018-12-05T02:08:38.232Z,7.60
2018-12-05T02:11:07.839Z,9.55
2018-12-05T02:13:35.931Z,14.20
2018-12-05T02:18:35.407Z,11.38
2018-12-05T02:21:04.225Z,11.63
2018-12-05T02:23:32.291Z,11.48
2018-12-05T02:26:01.671Z,17.20
2018-12-05T02:28:30.943Z,12.03
2018-12-05T02:30:59.862Z,10.53
2018-12-05T02:33:28.167Z,8.75
2018-12-05T02:35:56.992Z,8.78
2018-12-05T02:38:25.158Z,8.13
2018-12-05T02:40:55.024Z,8.10
2018-12-05T02:43:23.217Z,8.00
2018-12-05T02:45:51.623Z,8.50
2018-12-05T02:48:19.774Z,8.95
2018-12-05T02:50:49.728Z,9.88
2018-12-05T02:53:17.872Z,10.88
2018-12-05T02:55:45.991Z,11.25
2018-12-05T02:58:14.313Z,12.18
2018-12-05T03:00:42.518Z,14.40
2018-12-05T03:03:10.550Z,13.80
2018-12-05T03:05:38.648Z,14.50
2018-12-05T03:08:06.693Z,14.30
2018-12-05T03:10:35.307Z,14.90
2018-12-05T03:13:05.186Z,15.80
2018-12-05T03:15:33.382Z,15.63
2018-12-05T03:18:02.004Z,15.25
2018-12-05T03:20:31.054Z,15.38
2018-12-05T03:22:59.244Z,15.30
2018-12-05T03:25:28.914Z,16.20
2018-12-05T03:27:57.032Z,16.62
2018-12-05T03:30:25.369Z,16.55
2018-12-05T03:32:54.268Z,15.72
2018-12-05T03:35:27.432Z,16.50
2018-12-05T03:37:56.141Z,17.50
2018-12-05T03:40:24.213Z,18.52
2018-12-05T03:42:52.728Z,18.15
2018-12-05T03:45:22.015Z,18.42
2018-12-05T03:47:50.223Z,19.30
2018-12-05T03:50:18.427Z,19.30
2018-12-05T03:52:46.830Z,18.60
2018-12-05T03:55:15.148Z,19.20
2018-12-05T03:57:43.704Z,18.90
2018-12-05T04:00:12.841Z,17.10
2018-12-05T04:02:41.951Z,17.17
2018-12-05T04:05:10.219Z,16.30
2018-12-05T04:07:38.723Z,15.98
2018-12-05T04:10:07.238Z,15.60
2018-12-05T04:12:40.736Z,15.78
2018-12-05T04:15:09.267Z,16.00
2018-12-05T04:17:38.045Z,15.75
2018-12-05T04:20:06.493Z,15.50
2018-12-05T04:22:35.347Z,14.65
2018-12-05T04:25:04.102Z,15.50
2018-12-05T04:27:32.744Z,14.47
2018-12-05T04:30:01.035Z,14.23
2018-12-05T04:32:29.170Z,14.15
2018-12-05T04:34:57.728Z,14.18
2018-12-05T04:37:26.234Z,14.68
2018-12-05T04:39:54.432Z,14.65
2018-12-05T04:42:22.774Z,14.00
2018-12-05T04:44:51.082Z,13.45
2018-12-05T04:47:19.428Z,13.98
2018-12-05T04:49:47.728Z,13.55
2018-12-05T04:52:16.626Z,13.60
2018-12-05T04:54:44.901Z,13.30
2018-12-05T04:57:13.270Z,13.15
2018-12-05T04:59:46.672Z,13.18
2018-12-05T05:02:18.332Z,12.80
2018-12-05T05:04:49.524Z,13.10
2018-12-05T05:07:20.916Z,13.65
2018-12-05T05:09:51.130Z,14.30
2018-12-05T05:12:21.220Z,13.00
2018-12-05T05:14:50.744Z,14.03
2018-12-05T05:17:19.606Z,13.90
2018-12-05T05:19:48.986Z,14.35
2018-12-05T05:22:17.716Z,12.98
2018-12-05T05:24:46.095Z,14.80
2018-12-05T05:27:14.370Z,13.80
2018-12-05T05:29:42.687Z,14.45
2018-12-05T05:32:10.946Z,14.30
2018-12-05T05:34:39.140Z,15.18
2018-12-05T05:37:07.414Z,14.50
2018-12-05T05:39:35.438Z,14.98
2018-12-05T05:42:04.475Z,14.85
2018-12-05T05:44:32.508Z,14.98
2018-12-05T05:47:00.704Z,14.75
2018-12-05T05:49:29.082Z,14.78
2018-12-05T05:51:57.447Z,14.50
2018-12-05T05:54:25.524Z,15.15
2018-12-05T05:56:53.575Z,15.00
2018-12-05T05:59:21.778Z,14.63
2018-12-05T06:01:50.235Z,15.05
2018-12-05T06:04:18.336Z,14.25
2018-12-05T06:06:46.387Z,14.10
2018-12-05T06:09:14.569Z,14.70
2018-12-05T06:11:42.721Z,15.48
2018-12-05T06:14:10.806Z,15.43
2018-12-05T06:16:38.974Z,14.75
2018-12-05T06:19:07.164Z,14.85
2018-12-05T06:21:35.309Z,14.47
2018-12-05T06:24:03.833Z,14.60
2018-12-05T06:26:31.868Z,13.80
2018-12-05T06:29:00.258Z,15.05
2018-12-05T06:31:28.307Z,14.27
2018-12-05T06:33:56.421Z,14.33
2018-12-05T06:36:24.455Z,13.50
2018-12-05T06:38:52.546Z,13.60
2018-12-05T06:41:20.686Z,13.98
2018-12-05T06:43:49.473Z,13.23
2018-12-05T06:46:17.575Z,12.95
2018-12-05T06:48:45.831Z,13.95
2018-12-05T06:51:14.026Z,14.18
2018-12-05T06:53:42.184Z,14.60
2018-12-05T06:56:10.373Z,14.23
2018-12-05T06:58:38.543Z,13.60
2018-12-05T07:01:06.667Z,12.70
2018-12-05T07:03:34.762Z,13.93
2018-12-05T07:06:03.194Z,13.13
2018-12-05T07:08:31.320Z,13.90
2018-12-05T07:10:59.619Z,14.20
2018-12-05T07:13:27.663Z,13.40
2018-12-05T07:15:55.749Z,13.93
2018-12-05T07:18:23.902Z,14.40
2018-12-05T07:20:52.106Z,13.80
2018-12-05T07:23:20.343Z,13.53
2018-12-05T07:25:48.770Z,14.30
2018-12-05T07:28:16.802Z,14.23
2018-12-05T07:30:44.994Z,13.68
2018-12-05T07:33:13.096Z,13.83
2018-12-05T07:35:41.215Z,14.20
2018-12-05T07:38:09.331Z,13.53
2018-12-05T07:40:37.366Z,14.07
2018-12-05T07:43:05.534Z,13.75
2018-12-05T07:45:33.718Z,13.85
2018-12-05T07:48:01.793Z,14.80
2018-12-05T07:50:29.954Z,13.80
2018-12-05T07:52:58.038Z,13.70
2018-12-05T07:55:26.222Z,14.20
2018-12-05T07:57:54.312Z,13.70
2018-12-05T08:00:22.434Z,14.40
2018-12-05T08:02:51.049Z,14.50
2018-12-05T08:05:19.158Z,15.43
2018-12-05T08:07:47.292Z,14.73
2018-12-05T08:10:15.344Z,15.55
2018-12-05T08:12:43.739Z,14.75
2018-12-05T08:15:11.923Z,15.65
2018-12-05T08:17:40.068Z,15.05
2018-12-05T08:20:08.582Z,16.00
2018-12-05T08:22:36.629Z,15.95
2018-12-05T08:25:05.327Z,16.30
2018-12-05T08:27:33.571Z,16.62
2018-12-05T08:30:01.986Z,17.55
2018-12-05T08:32:30.155Z,17.12
2018-12-05T08:34:58.339Z,18.97
2018-12-05T08:37:26.484Z,18.32
2018-12-05T08:39:54.654Z,18.55
2018-12-05T08:42:22.852Z,20.12
2018-12-05T08:44:51.228Z,19.77
2018-12-05T08:47:19.377Z,19.92
2018-12-05T08:49:47.671Z,18.98
2018-12-05T08:52:15.742Z,20.02
2018-12-05T08:54:43.819Z,19.45
2018-12-05T08:57:12.501Z,19.00
2018-12-05T08:59:40.728Z,19.97
2018-12-05T09:02:08.858Z,19.70
2018-12-05T09:04:37.118Z,19.00
2018-12-05T09:07:05.278Z,18.90
2018-12-05T09:09:33.550Z,18.45
2018-12-05T09:12:01.747Z,19.52
2018-12-05T09:14:30.011Z,20.20
2018-12-05T09:16:58.710Z,20.10
2018-12-05T09:19:27.034Z,19.10
2018-12-05T09:21:55.258Z,18.87
2018-12-05T09:24:23.407Z,19.10
2018-12-05T09:26:51.703Z,19.32
2018-12-05T09:29:19.839Z,18.50
2018-12-05T09:31:47.924Z,18.52
2018-12-05T09:34:16.306Z,17.42
2018-12-05T09:36:44.621Z,17.73
2018-12-05T09:39:13.551Z,18.05
2018-12-05T09:41:41.678Z,17.80
2018-12-05T09:44:09.717Z,16.65
2018-12-05T09:46:37.820Z,18.30
2018-12-05T09:49:05.982Z,17.17
2018-12-05T09:51:34.039Z,17.60
2018-12-05T09:54:02.777Z,18.00
2018-12-05T09:56:30.877Z,17.50
2018-12-05T09:58:59.083Z,18.20
2018-12-05T10:01:27.220Z,17.40
2018-12-05T10:03:55.309Z,18.73
2018-12-05T10:06:23.365Z,18.92
2018-12-05T10:08:51.658Z,17.80
2018-12-05T10:11:19.934Z,17.90
2018-12-05T10:13:48.127Z,17.90
2018-12-05T10:16:16.169Z,17.15
2018-12-05T10:18:44.359Z,18.37
2018-12-05T10:21:12.498Z,17.60
2018-12-05T10:23:40.719Z,18.77
2018-12-05T10:26:08.756Z,18.15
2018-12-05T10:28:36.933Z,18.10
2018-12-05T10:31:05.128Z,19.07
2018-12-05T10:33:33.310Z,19.30
2018-12-05T10:36:01.448Z,18.10
2018-12-05T10:38:29.500Z,18.73
2018-12-05T10:40:57.723Z,18.30
2018-12-05T10:43:25.878Z,19.60
2018-12-05T10:45:54.110Z,18.40
2018-12-05T10:48:22.359Z,19.17
2018-12-05T10:50:51.023Z,20.10
2018-12-05T10:53:19.243Z,19.25
2018-12-05T10:55:47.277Z,20.10
2018-12-05T10:58:15.344Z,18.73
2018-12-05T11:00:48.927Z,19.23
2018-12-05T11:03:23.930Z,17.60
2018-12-05T11:05:57.779Z,19.00
2018-12-05T11:08:31.387Z,19.10
2018-12-05T11:11:04.882Z,18.57
2018-12-05T11:13:38.419Z,18.23
2018-12-05T11:16:13.927Z,19.07
2018-12-05T11:18:47.675Z,17.62
2018-12-05T11:21:21.343Z,17.80
2018-12-05T11:23:55.049Z,18.65
2018-12-05T11:26:25.468Z,17.67
2018-12-05T11:28:53.706Z,17.25
2018-12-05T11:31:21.920Z,17.35
2018-12-05T11:35:53.432Z,16.37
2018-12-05T11:38:21.841Z,17.73
2018-12-05T11:40:50.403Z,17.37
2018-12-05T11:43:18.699Z,17.27
2018-12-05T11:45:46.858Z,15.00
2018-12-05T11:48:15.054Z,15.75
2018-12-05T11:50:43.405Z,16.32
2018-12-05T11:53:11.812Z,15.50
2018-12-05T11:55:40.072Z,15.30
2018-12-05T11:58:08.261Z,14.70
2018-12-05T12:00:36.692Z,14.50
2018-12-05T12:03:05.118Z,15.23
2018-12-05T12:05:33.292Z,14.10
2018-12-05T12:08:01.363Z,14.13
2018-12-05T12:10:35.129Z,13.70
2018-12-05T12:13:05.530Z,13.28
2018-12-05T12:15:33.755Z,13.48
2018-12-05T12:18:02.129Z,13.70
2018-12-05T12:20:30.205Z,14.03
2018-12-05T12:22:58.707Z,14.53
2018-12-05T12:25:26.747Z,14.83
2018-12-05T12:27:54.943Z,15.00
2018-12-05T12:30:23.226Z,13.65
2018-12-05T12:32:51.270Z,14.73
2018-12-05T12:35:19.363Z,14.10
2018-12-05T12:37:47.720Z,13.90
2018-12-05T12:40:16.018Z,14.28
2018-12-05T12:42:44.114Z,14.23
2018-12-05T12:45:12.258Z,14.28
2018-12-05T12:47:40.531Z,14.13
2018-12-05T12:50:08.809Z,14.65
2018-12-05T12:52:36.857Z,14.55
2018-12-05T12:55:05.748Z,13.98
2018-12-05T12:57:34.517Z,14.50
2018-12-05T13:00:02.921Z,14.98
2018-12-05T13:02:30.984Z,15.00
2018-12-05T13:04:59.126Z,14.03
2018-12-05T13:07:27.331Z,14.35
2018-12-05T13:09:55.512Z,15.13
2018-12-05T13:12:28.607Z,14.40
2018-12-05T13:14:57.176Z,15.00
2018-12-05T13:17:25.267Z,15.87
2018-12-05T13:19:53.411Z,15.58
2018-12-05T13:22:21.715Z,15.95
2018-12-05T13:24:50.365Z,16.07
2018-12-05T13:27:18.578Z,16.52
2018-12-05T13:29:46.723Z,17.90
2018-12-05T13:32:14.925Z,19.10
2018-12-05T13:34:43.067Z,20.45
2018-12-05T13:37:11.154Z,19.90
2018-12-05T13:39:39.506Z,20.05
2018-12-05T13:42:08.126Z,18.52
2018-12-05T13:44:36.167Z,18.60
2018-12-05T13:47:04.431Z,19.23
2018-12-05T13:49:32.935Z,19.07
2018-12-05T13:52:01.583Z,19.42
2018-12-05T13:54:29.810Z,20.97
2018-12-05T13:56:58.460Z,19.85
2018-12-05T13:59:26.827Z,20.62
2018-12-05T14:01:55.599Z,20.43
2018-12-05T14:04:23.637Z,21.47
2018-12-05T14:06:51.878Z,21.30
2018-12-05T14:09:20.100Z,20.20
2018-12-05T14:11:48.133Z,21.85
2018-12-05T14:14:16.445Z,22.42
2018-12-05T14:16:44.592Z,22.20
2018-12-05T14:19:12.763Z,22.93
2018-12-05T14:21:41.043Z,22.80
2018-12-05T14:24:09.125Z,23.18
2018-12-05T14:26:37.175Z,23.42
2018-12-05T14:29:05.362Z,24.50
2018-12-05T14:31:33.520Z,25.48
2018-12-05T14:34:01.712Z,27.40
2018-12-05T14:36:29.808Z,23.60
2018-12-05T14:38:58.240Z,25.50
2018-12-05T14:41:26.559Z,24.87
2018-12-05T14:43:54.578Z,24.50
2018-12-05T14:46:23.524Z,27.77
2018-12-05T14:48:53.125Z,25.35
2018-12-05T14:51:21.269Z,25.70
2018-12-05T14:53:49.789Z,24.75
2018-12-05T14:56:17.825Z,26.40
2018-12-05T14:58:45.970Z,26.75
2018-12-05T15:01:14.176Z,27.40
2018-12-05T15:03:42.220Z,26.15
2018-12-05T15:06:10.332Z,26.67
2018-12-05T15:08:38.481Z,24.67
2018-12-05T15:11:06.655Z,25.20
2018-12-05T15:13:34.734Z,25.25
2018-12-05T15:16:02.998Z,23.05
2018-12-05T15:18:31.072Z,24.95
2018-12-05T15:20:59.739Z,24.60
2018-12-05T15:23:28.050Z,24.50
2018-12-05T15:25:56.080Z,26.07
2018-12-05T15:28:24.278Z,24.43
2018-12-05T15:30:52.534Z,23.85
2018-12-05T15:33:20.741Z,24.55
2018-12-05T15:35:48.983Z,26.15
2018-12-05T15:38:17.074Z,25.17
2018-12-05T15:40:45.226Z,23.77
2018-12-05T15:43:14.078Z,23.10
2018-12-05T15:45:42.185Z,21.80
2018-12-05T15:48:10.307Z,21.17
2018-12-05T15:50:38.443Z,21.80
2018-12-05T15:53:06.637Z,21.95
2018-12-05T15:55:34.794Z,22.10
2018-12-05T15:58:03.139Z,21.05
2018-12-05T16:00:31.228Z,20.80
2018-12-05T16:02:59.330Z,22.02
2018-12-05T16:05:27.466Z,20.80
2018-12-05T16:07:55.766Z,21.07
2018-12-05T16:10:24.786Z,19.20
2018-12-05T16:12:53.515Z,19.37
2018-12-05T16:15:22.957Z,18.48
2018-12-05T16:17:52.067Z,19.02
2018-12-05T16:20:22.100Z,20.50
2018-12-05T16:22:50.945Z,18.27
2018-12-05T16:25:20.614Z,17.70
2018-12-05T16:27:50.006Z,16.90
2018-12-05T16:30:18.253Z,16.45
2018-12-05T16:32:46.613Z,15.78
2018-12-05T16:35:14.691Z,17.40
2018-12-05T16:37:42.934Z,18.10
2018-12-05T16:40:11.456Z,15.23
2018-12-05T16:42:40.320Z,15.43
2018-12-05T16:45:08.719Z,16.30
2018-12-05T16:47:37.186Z,15.00
2018-12-05T16:50:05.754Z,16.15
2018-12-05T16:52:34.717Z,16.75
2018-12-05T16:55:03.409Z,15.18
2018-12-05T16:57:32.968Z,16.52
2018-12-05T17:00:01.144Z,17.10
2018-12-05T17:02:30.322Z,19.03
2018-12-05T17:04:59.458Z,17.98
2018-12-05T17:07:28.831Z,16.80
2018-12-05T17:09:58.912Z,16.85
2018-12-05T17:12:27.807Z,16.40
2018-12-05T17:14:56.962Z,16.12
2018-12-05T17:17:25.232Z,15.53
2018-12-05T17:19:56.022Z,16.48
2018-12-05T17:22:25.960Z,18.90
2018-12-05T17:24:55.584Z,17.32
2018-12-05T17:27:23.718Z,16.55
2018-12-05T17:29:52.972Z,15.93
2018-12-05T17:32:23.026Z,16.73
2018-12-05T17:34:52.339Z,17.37
2018-12-05T17:37:21.223Z,17.10
2018-12-05T17:39:51.055Z,15.75
2018-12-05T17:42:19.230Z,16.48
2018-12-05T17:44:47.290Z,16.40
2018-12-05T17:47:15.530Z,16.05
2018-12-05T17:49:43.851Z,17.15
2018-12-05T17:52:11.910Z,19.00
2018-12-05T17:54:39.979Z,19.85
2018-12-05T17:57:08.250Z,21.45
2018-12-05T17:59:36.330Z,20.45
2018-12-05T18:02:04.708Z,18.37
2018-12-05T18:04:33.013Z,17.10
2018-12-05T18:07:01.745Z,16.60
2018-12-05T18:09:29.875Z,17.07
2018-12-05T18:11:59.666Z,17.00
2018-12-05T18:14:27.816Z,17.17
2018-12-05T18:16:58.067Z,17.80
2018-12-05T18:19:26.427Z,18.87
2018-12-05T18:21:55.462Z,18.45
2018-12-05T18:24:23.570Z,19.67
2018-12-05T18:26:52.648Z,17.40
2018-12-05T18:29:20.936Z,16.60
2018-12-05T18:31:49.737Z,14.73
2018-12-05T18:34:17.891Z,13.95
2018-12-05T18:36:45.995Z,14.10
2018-12-05T18:39:17.922Z,14.35
2018-12-05T18:41:47.084Z,13.32
2018-12-05T18:44:15.314Z,14.03
2018-12-05T18:46:45.157Z,13.93
2018-12-05T18:49:15.959Z,13.58
2018-12-05T18:51:45.917Z,13.88
2018-12-05T18:54:14.669Z,18.45
2018-12-05T18:56:44.910Z,15.28
2018-12-05T18:59:13.110Z,12.90
2018-12-05T19:01:41.254Z,11.93
2018-12-05T19:04:10.132Z,11.85
2018-12-05T19:06:38.717Z,12.30
2018-12-05T19:09:08.610Z,11.87
2018-12-05T19:11:38.575Z,13.88
2018-12-05T19:14:12.289Z,12.85
2018-12-05T19:16:42.022Z,12.82
2018-12-05T19:19:11.204Z,12.28
2018-12-05T19:21:41.272Z,11.90
2018-12-05T19:24:11.128Z,14.40
2018-12-05T19:26:40.765Z,12.23
2018-12-05T19:29:09.082Z,12.13
2018-12-05T19:31:38.120Z,12.20
2018-12-05T19:34:07.242Z,11.88
2018-12-05T19:36:37.685Z,10.85
2018-12-05T19:39:07.207Z,10.70
2018-12-05T19:41:35.625Z,11.43
2018-12-05T19:44:07.068Z,11.25
2018-12-05T19:46:36.793Z,12.13
2018-12-05T19:49:13.273Z,13.50
2018-12-05T19:51:42.337Z,13.50
2018-12-05T19:54:10.576Z,12.70
2018-12-05T19:56:40.331Z,12.90
2018-12-05T19:59:09.648Z,12.88
2018-12-05T20:01:39.135Z,12.80
2018-12-05T20:04:07.643Z,13.43
2018-12-05T20:06:37.107Z,14.00
2018-12-05T20:09:08.150Z,12.35
2018-12-05T20:11:36.454Z,14.78
2018-12-05T20:14:05.559Z,12.73
2018-12-05T20:16:34.517Z,13.60
2018-12-05T20:19:02.727Z,12.43
2018-12-05T20:21:31.018Z,13.03
2018-12-05T20:24:00.154Z,12.30
2018-12-05T20:26:28.397Z,12.03
2018-12-05T20:28:56.540Z,12.58
2018-12-05T20:31:24.750Z,12.55
2018-12-05T20:33:53.419Z,12.63
2018-12-05T20:36:22.524Z,12.88
2018-12-05T20:38:50.780Z,12.60
2018-12-05T20:41:19.594Z,11.97
2018-12-05T20:46:32.923Z,13.28
2018-12-05T20:49:03.697Z,13.53
2018-12-05T20:51:32.039Z,13.90
2018-12-05T20:54:00.594Z,14.40
2018-12-05T20:56:31.073Z,14.47
2018-12-05T20:59:00.550Z,14.78
2018-12-05T21:01:29.188Z,14.33
2018-12-05T21:03:58.531Z,14.70
2018-12-05T21:06:29.272Z,13.63
2018-12-05T21:08:57.298Z,14.00
2018-12-05T21:11:26.695Z,14.28
2018-12-05T21:13:54.892Z,14.30
2018-12-05T21:16:22.983Z,15.08
2018-12-05T21:18:51.315Z,16.25
2018-12-05T21:21:19.414Z,15.50
2018-12-05T21:23:48.378Z,14.85
2018-12-05T21:26:16.479Z,15.15
2018-12-05T21:28:44.587Z,14.50
2018-12-05T21:31:12.925Z,15.72
2018-12-05T21:33:41.027Z,15.40
2018-12-05T21:36:09.389Z,15.18
2018-12-05T21:38:39.824Z,17.50
2018-12-05T21:41:07.896Z,17.82
2018-12-05T21:43:36.131Z,14.98
2018-12-05T21:46:04.403Z,14.53
2018-12-05T21:48:32.513Z,14.50
2018-12-05T21:51:00.682Z,14.55
2018-12-05T21:53:28.884Z,16.40
2018-12-05T21:55:57.037Z,15.95
2018-12-05T21:58:25.219Z,16.15
2018-12-05T22:00:53.590Z,16.17
2018-12-05T22:03:21.774Z,16.95
2018-12-05T22:05:49.959Z,16.35
2018-12-05T22:08:18.103Z,15.70
2018-12-05T22:10:46.491Z,16.23
2018-12-05T22:13:14.638Z,15.98
2018-12-05T22:15:42.725Z,15.28
2018-12-05T22:18:10.798Z,14.05
2018-12-05T22:20:39.187Z,14.80
2018-12-05T22:23:07.231Z,13.60
2018-12-05T22:25:35.550Z,14.60
2018-12-05T22:28:04.170Z,13.25
2018-12-05T22:30:32.287Z,12.53
2018-12-05T22:33:00.558Z,14.83
2018-12-05T22:35:28.736Z,14.70
2018-12-05T22:37:56.801Z,14.63
2018-12-05T22:40:24.873Z,14.58
2018-12-05T22:42:53.266Z,14.35
2018-12-05T22:45:21.317Z,14.58
2018-12-05T22:47:49.595Z,14.35
2018-12-05T22:50:17.738Z,14.30
2018-12-05T22:52:45.966Z,14.28
2018-12-05T22:55:14.198Z,14.38
2018-12-05T22:57:42.570Z,13.90
2018-12-05T23:00:17.284Z,14.53
2018-12-05T23:02:45.391Z,14.58
2018-12-05T23:05:13.436Z,14.43
2018-12-05T23:07:41.634Z,14.50
2018-12-05T23:10:09.788Z,14.47
2018-12-05T23:12:38.612Z,14.20
2018-12-05T23:15:07.139Z,14.53
2018-12-05T23:17:35.457Z,14.47
2018-12-05T23:20:03.808Z,13.48
2018-12-05T23:22:31.908Z,14.43
2018-12-05T23:24:59.955Z,13.80
2018-12-05T23:27:28.259Z,13.85
2018-12-05T23:29:56.731Z,13.43
2018-12-05T23:32:24.884Z,13.00
2018-12-05T23:34:53.414Z,13.30
2018-12-05T23:37:22.173Z,13.08
2018-12-05T23:39:50.352Z,13.40
2018-12-05T23:42:18.415Z,13.70
2018-12-05T23:44:46.514Z,12.43
2018-12-05T23:47:14.534Z,13.20
2018-12-05T23:49:42.745Z,13.00
2018-12-05T23:52:10.883Z,13.08
2018-12-05T23:54:38.983Z,13.90
2018-12-05T23:57:07.124Z,13.08
2018-12-05T23:59:35.443Z,13.03
